Time;durP1;ratioP1;P1;durP2;ratioP2;P2;SDS_P1;SDS_P2;PMS_P1;PMS_P2;Temp;Humidity;BMP_temperature;BMP_pressure;BME280_temperature;BME280_humidity;BME280_pressure;Samples;Min_cycle;Max_cycle;Signal;HPM_P1;HPM_P2
2022/03/15 00:01:51;;;;;;;56.87;26.80;;;;;;;2.63;78.87;102056.84;10261621;28;20226;-74
2022/03/15 00:06:56;;;;;;;59.57;27.63;;;;;;;2.58;79.59;102054.06;10261276;28;20223;-72
2022/03/15 00:12:01;;;;;;;60.97;26.83;;;;;;;2.53;80.87;102046.94;10261190;28;20306;-73
2022/03/15 00:17:07;;;;;;;53.53;27.17;;;;;;;2.48;81.22;102049.31;10262982;28;20220;-73
2022/03/15 00:22:10;;;;;;;54.33;26.63;;;;;;;2.51;81.96;102056.25;10259934;28;20254;-71
2022/03/15 00:27:14;;;;;;;52.87;25.97;;;;;;;2.46;82.01;102043.22;10260365;28;20188;-71
2022/03/15 00:32:19;;;;;;;55.33;25.30;;;;;;;2.44;81.82;102039.69;10259855;28;20196;-73
2022/03/15 00:37:23;;;;;;;53.60;25.63;;;;;;;2.47;82.43;102044.09;10260219;28;20527;-73
2022/03/15 00:42:27;;;;;;;54.27;26.80;;;;;;;2.47;82.54;102036.41;10260665;28;20270;-72
2022/03/15 00:47:32;;;;;;;55.57;27.03;;;;;;;2.43;83.40;102024.25;10260578;28;20299;-71
2022/03/15 00:52:35;;;;;;;50.90;24.40;;;;;;;2.38;83.82;102023.16;10260509;28;20205;-71
2022/03/15 00:57:39;;;;;;;52.90;24.87;;;;;;;2.35;83.96;102009.38;10259566;28;20287;-71
2022/03/15 01:02:43;;;;;;;61.80;28.50;;;;;;;2.31;83.54;102025.41;10259322;28;20216;-72
2022/03/15 01:07:47;;;;;;;57.67;26.83;;;;;;;2.24;84.80;102023.31;10258933;29;20687;-71
2022/03/15 01:12:50;;;;;;;50.87;25.40;;;;;;;2.22;84.66;102019.84;10260687;28;20276;-72
2022/03/15 01:17:55;;;;;;;49.43;25.00;;;;;;;2.14;84.40;102016.00;10257988;28;20251;-70
2022/03/15 01:23:00;;;;;;;54.77;25.97;;;;;;;2.15;85.33;102016.88;10258393;28;20311;-71
2022/03/15 01:28:03;;;;;;;45.57;25.20;;;;;;;2.18;85.28;102023.03;10258050;28;20230;-70
2022/03/15 01:33:08;;;;;;;52.60;26.33;;;;;;;2.13;85.60;102013.38;10256889;28;20222;-72
2022/03/15 01:38:11;;;;;;;52.30;24.50;;;;;;;2.10;85.46;102009.00;10257884;28;20576;-71
2022/03/15 01:43:15;;;;;;;50.47;25.70;;;;;;;2.00;85.63;102004.19;10261013;28;20219;-71
2022/03/15 01:48:20;;;;;;;55.80;25.67;;;;;;;1.98;85.65;102010.03;10257290;28;20232;-72
2022/03/15 01:53:24;;;;;;;49.50;24.93;;;;;;;1.97;85.92;102005.72;10257744;28;20228;-72
2022/03/15 01:58:28;;;;;;;52.93;26.00;;;;;;;1.95;85.73;101999.66;10257195;29;20228;-71
2022/03/15 02:03:33;;;;;;;46.57;25.20;;;;;;;1.91;85.97;101998.63;10256830;28;20230;-71
2022/03/15 02:08:36;;;;;;;52.43;25.53;;;;;;;1.92;86.87;102010.59;10255649;28;20224;-71
2022/03/15 02:13:40;;;;;;;49.77;25.07;;;;;;;1.78;87.50;102009.00;10254897;28;20589;-72
2022/03/15 02:18:45;;;;;;;55.00;26.53;;;;;;;1.82;87.72;102004.94;10253411;28;20694;-72
2022/03/15 02:23:51;;;;;;;56.90;26.23;;;;;;;1.77;87.93;102003.81;10253366;28;20216;-69
2022/03/15 02:28:55;;;;;;;56.10;26.73;;;;;;;1.72;88.63;101998.47;10253861;28;20223;-69
2022/03/15 02:33:58;;;;;;;51.23;27.77;;;;;;;1.66;88.54;102004.94;10253080;28;20230;-70
2022/03/15 02:39:03;;;;;;;58.37;26.33;;;;;;;1.56;88.62;102006.16;10254693;29;20219;-70
2022/03/15 02:44:06;;;;;;;52.57;25.63;;;;;;;1.57;89.54;102007.03;10254763;28;20903;-68
2022/03/15 02:49:10;;;;;;;51.83;26.00;;;;;;;1.56;90.86;102005.25;9918628;28;10000514;-71
2022/03/15 02:54:14;;;;;;;49.20;25.77;;;;;;;1.44;91.06;102014.84;10260964;28;20223;-61
2022/03/15 02:59:18;;;;;;;55.37;27.50;;;;;;;1.38;92.34;102006.88;10261449;28;20224;-72
2022/03/15 03:04:21;;;;;;;54.90;26.03;;;;;;;1.43;92.82;102016.56;10263867;28;20239;-72
2022/03/15 03:09:26;;;;;;;50.37;26.20;;;;;;;1.51;92.41;102014.38;10265423;28;20302;-70
2022/03/15 03:14:30;;;;;;;49.60;26.07;;;;;;;1.44;92.36;102002.97;10263433;28;20226;-71
2022/03/15 03:19:39;;;;;;;73.47;33.67;;;;;;;1.43;92.32;102016.56;10263050;28;20688;-73
2022/03/15 03:24:43;;;;;;;47.87;25.03;;;;;;;1.41;93.20;102014.69;10260512;28;20212;-71
2022/03/15 03:29:47;;;;;;;51.30;27.07;;;;;;;1.39;93.04;102014.63;10259590;28;20712;-70
2022/03/15 03:34:50;;;;;;;56.40;27.40;;;;;;;1.37;93.28;102018.78;10259681;28;20224;-69
2022/03/15 03:39:55;;;;;;;51.80;27.30;;;;;;;1.31;93.83;102020.13;10260770;28;20355;-68
2022/03/15 03:44:58;;;;;;;55.83;24.83;;;;;;;1.26;94.53;102006.22;10259164;28;20212;-70
2022/03/15 03:50:03;;;;;;;52.03;25.60;;;;;;;1.18;94.62;102009.25;10259128;28;20696;-71
2022/03/15 03:55:09;;;;;;;52.13;26.33;;;;;;;1.24;93.82;102011.25;10257723;28;20216;-70
2022/03/15 04:00:14;;;;;;;53.37;27.53;;;;;;;1.10;94.78;102015.59;10258731;28;20219;-70
2022/03/15 04:05:17;;;;;;;57.33;27.07;;;;;;;1.10;95.60;102012.19;10258770;28;20558;-67
2022/03/15 04:10:22;;;;;;;57.15;25.00;;;;;;;1.02;94.97;102005.75;9917932;28;10000271;-68
2022/03/15 04:15:25;;;;;;;61.20;29.33;;;;;;;0.97;95.17;102010.63;10258018;28;20602;-67
2022/03/15 04:20:29;;;;;;;57.17;28.50;;;;;;;0.97;95.03;102009.75;10259662;28;20247;-70
2022/03/15 04:25:33;;;;;;;54.63;29.37;;;;;;;0.97;94.63;102017.41;10260799;28;20299;-72
2022/03/15 04:30:36;;;;;;;55.63;28.27;;;;;;;0.96;95.40;102015.66;10260537;28;20228;-69
2022/03/15 04:35:40;;;;;;;58.53;29.00;;;;;;;0.94;95.22;102012.16;10262748;28;20240;-68
2022/03/15 04:40:44;;;;;;;55.60;28.63;;;;;;;0.90;95.12;102003.44;10261980;28;20228;-71
2022/03/15 04:45:49;;;;;;;54.83;27.30;;;;;;;0.87;96.05;101998.16;10260122;28;20223;-71
2022/03/15 04:50:53;;;;;;;57.70;28.67;;;;;;;0.92;95.61;102000.97;10259861;28;20228;-72
2022/03/15 04:55:58;;;;;;;60.50;28.30;;;;;;;0.93;95.77;101997.63;10259631;28;20323;-71
2022/03/15 05:01:01;;;;;;;57.37;27.67;;;;;;;0.90;95.91;102003.44;10259333;28;20559;-75
2022/03/15 05:06:05;;;;;;;56.33;27.17;;;;;;;0.87;96.24;102000.72;10261424;28;20371;-73
2022/03/15 05:11:10;;;;;;;55.83;27.40;;;;;;;0.87;96.76;101998.16;10256239;28;20227;-72
2022/03/15 05:16:17;;;;;;;53.30;27.13;;;;;;;0.98;95.97;101993.63;10255683;28;20242;-71
2022/03/15 05:21:23;;;;;;;54.73;27.37;;;;;;;0.97;95.59;102002.97;10254449;28;20247;-73
2022/03/15 05:26:30;;;;;;;53.57;27.70;;;;;;;1.04;96.65;101999.97;10255464;29;20259;-72
2022/03/15 05:31:35;;;;;;;58.33;28.03;;;;;;;1.03;96.20;101997.31;10279343;28;20298;-71
2022/03/15 05:36:39;;;;;;;55.07;29.23;;;;;;;1.07;95.83;102001.81;10299446;28;20749;-71
2022/03/15 05:41:43;;;;;;;62.37;28.53;;;;;;;1.10;95.92;101992.59;10294831;28;20302;-71
2022/03/15 05:46:47;;;;;;;66.20;28.13;;;;;;;1.03;96.00;102000.75;10283102;28;20234;-64
2022/03/15 05:51:50;;;;;;;60.93;30.83;;;;;;;1.01;94.85;102007.47;10254392;28;20301;-67
2022/03/15 05:56:54;;;;;;;71.43;30.90;;;;;;;1.00;95.40;102021.03;10254201;28;20224;-64
2022/03/15 06:01:58;;;;;;;60.37;30.80;;;;;;;1.04;94.42;102006.72;10254071;28;20234;-67
2022/03/15 06:07:02;;;;;;;73.60;38.83;;;;;;;1.09;94.05;101997.63;10252231;28;20933;-63
2022/03/15 06:12:12;;;;;;;67.27;30.70;;;;;;;1.41;92.34;102010.47;10253585;28;20600;-70
2022/03/15 06:17:16;;;;;;;60.77;30.17;;;;;;;1.49;89.74;102016.88;10253420;28;20321;-66
2022/03/15 06:22:19;;;;;;;59.50;30.07;;;;;;;1.51;87.24;102015.28;10253313;28;20242;-68
2022/03/15 06:27:23;;;;;;;61.40;28.77;;;;;;;1.67;86.53;102020.41;10253301;28;20559;-73
2022/03/15 06:32:27;;;;;;;63.50;28.63;;;;;;;1.83;87.19;102028.03;10253414;28;20246;-72
2022/03/15 06:37:30;;;;;;;69.87;31.00;;;;;;;2.06;86.63;102032.66;10254105;28;20243;-71
2022/03/15 06:42:35;;;;;;;64.43;31.00;;;;;;;2.09;84.97;102020.00;10252753;28;20232;-72
2022/03/15 06:47:40;;;;;;;65.17;30.23;;;;;;;2.23;84.85;102021.59;10252799;28;20227;-72
2022/03/15 06:52:46;;;;;;;69.60;30.27;;;;;;;2.39;84.66;102023.22;10252488;28;20561;-73
2022/03/15 06:57:50;;;;;;;63.63;32.17;;;;;;;2.54;84.06;102023.09;10252654;28;20224;-71
2022/03/15 07:02:54;;;;;;;58.40;27.47;;;;;;;2.71;81.86;102027.34;10255566;29;20227;-71
2022/03/15 07:07:57;;;;;;;63.97;28.57;;;;;;;2.93;81.24;102018.19;10252815;28;20275;-72
2022/03/15 07:13:02;;;;;;;52.07;26.30;;;;;;;3.19;80.57;102027.94;10252173;28;20286;-71
2022/03/15 07:18:05;;;;;;;60.73;27.40;;;;;;;3.38;80.08;102020.28;10252117;28;20778;-75
2022/03/15 07:23:09;;;;;;;57.90;28.43;;;;;;;3.62;80.17;102011.94;10252029;28;20200;-66
2022/03/15 07:28:14;;;;;;;65.07;28.90;;;;;;;3.84;80.06;102015.50;10252092;28;20200;-70
2022/03/15 07:33:17;;;;;;;62.00;28.67;;;;;;;4.08;79.29;102016.56;10261544;28;20223;-74
2022/03/15 07:38:21;;;;;;;54.83;26.73;;;;;;;4.40;78.40;102017.91;10256923;28;20227;-75
2022/03/15 07:43:26;;;;;;;46.77;25.30;;;;;;;4.78;77.46;102019.47;10240184;28;20197;-73
2022/03/15 07:48:29;;;;;;;52.90;24.40;;;;;;;5.07;77.12;102017.22;10239245;28;20768;-73
2022/03/15 07:53:33;;;;;;;44.70;22.43;;;;;;;5.34;76.67;102009.63;10237300;29;20288;-74
2022/03/15 07:58:38;;;;;;;37.67;18.07;;;;;;;5.87;76.95;102015.06;10243028;28;20508;-71
2022/03/15 08:03:43;;;;;;;33.93;14.73;;;;;;;6.34;78.00;102016.69;10242051;29;20276;-73
2022/03/15 08:08:48;;;;;;;32.27;13.60;;;;;;;6.69;77.37;102018.72;10246810;28;20196;-75
2022/03/15 08:13:54;;;;;;;29.13;14.47;;;;;;;6.95;77.00;102010.13;10236919;29;20316;-70
2022/03/15 08:18:58;;;;;;;28.70;14.90;;;;;;;7.13;77.01;102018.41;10237496;28;20263;-72
2022/03/15 08:24:01;;;;;;;29.80;13.67;;;;;;;7.57;76.55;102009.38;10239476;29;20271;-74
2022/03/15 08:29:07;;;;;;;29.80;13.33;;;;;;;7.83;75.86;102013.56;10246978;28;20215;-73
2022/03/15 08:34:10;;;;;;;26.67;13.47;;;;;;;8.07;75.09;102015.13;10245000;28;20228;-76
2022/03/15 08:39:15;;;;;;;27.10;13.23;;;;;;;8.31;74.82;101994.22;10248036;28;20214;-75
2022/03/15 08:44:22;;;;;;;26.73;12.93;;;;;;;8.65;74.33;101991.59;10240155;28;20224;-74
2022/03/15 08:49:25;;;;;;;25.00;13.10;;;;;;;8.72;74.56;101988.31;10246789;28;20303;-76
2022/03/15 08:54:30;;;;;;;23.20;13.00;;;;;;;8.91;74.32;101974.06;10237745;28;20307;-76
2022/03/15 08:59:35;;;;;;;23.17;12.70;;;;;;;9.00;73.71;101972.59;10243440;28;20212;-72
2022/03/15 09:04:39;;;;;;;20.67;11.50;;;;;;;9.25;72.99;101984.31;10237978;28;20212;-75
2022/03/15 09:09:43;;;;;;;24.43;12.17;;;;;;;9.39;73.17;101967.34;10241784;28;20296;-66
2022/03/15 09:14:51;;;;;;;23.20;11.93;;;;;;;9.66;73.19;101980.88;10235103;28;20224;-67
2022/03/15 09:19:54;;;;;;;20.60;11.80;;;;;;;9.93;72.63;101976.22;10234824;28;20236;-69
2022/03/15 09:24:58;;;;;;;17.97;10.93;;;;;;;10.00;73.52;101972.88;10234411;29;20567;-68
2022/03/15 09:30:03;;;;;;;20.00;12.17;;;;;;;10.18;72.91;101959.41;10239326;28;20718;-69
2022/03/15 09:35:07;;;;;;;17.03;9.90;;;;;;;10.35;72.20;101963.16;10242402;28;20213;-74
2022/03/15 09:40:11;;;;;;;18.27;10.43;;;;;;;10.35;72.09;101965.75;10245041;28;20238;-73
2022/03/15 09:45:21;;;;;;;18.73;9.73;;;;;;;10.43;71.84;101967.63;10235607;28;20291;-72
2022/03/15 09:50:25;;;;;;;17.07;9.73;;;;;;;10.21;72.31;101986.28;10238774;28;20228;-74
2022/03/15 09:55:30;;;;;;;16.83;9.63;;;;;;;10.02;73.67;101983.28;10244437;28;20216;-74
2022/03/15 10:00:37;;;;;;;15.70;9.83;;;;;;;10.12;73.68;101977.44;10251102;28;20617;-71
2022/03/15 10:05:40;;;;;;;14.33;9.00;;;;;;;10.05;74.23;101980.72;10235582;28;20217;-73
2022/03/15 10:10:44;;;;;;;15.73;9.33;;;;;;;10.19;74.37;101989.69;10238225;28;20227;-77
2022/03/15 10:15:53;;;;;;;16.63;9.43;;;;;;;10.15;73.64;101986.16;10230756;28;20227;-74
2022/03/15 10:20:57;;;;;;;17.73;10.80;;;;;;;10.05;74.52;101991.13;10224438;28;20583;-74
2022/03/15 10:26:00;;;;;;;17.37;10.27;;;;;;;9.99;74.37;101984.09;10246780;28;20216;-74
2022/03/15 10:31:07;;;;;;;20.40;10.77;;;;;;;10.08;74.22;101983.38;10236863;28;20299;-73
2022/03/15 10:36:17;;;;;;;22.63;10.80;;;;;;;10.13;74.82;101972.28;10235339;29;20296;-74
2022/03/15 10:41:21;;;;;;;18.93;10.37;;;;;;;10.27;74.21;101968.19;10239250;28;20224;-72
2022/03/15 10:46:27;;;;;;;17.10;9.87;;;;;;;10.43;73.86;101961.53;10232709;28;20236;-73
2022/03/15 10:51:30;;;;;;;22.97;11.33;;;;;;;10.52;72.50;101947.84;10236211;28;20235;-73
2022/03/15 10:56:34;;;;;;;18.70;10.90;;;;;;;10.74;71.44;101940.38;10232451;29;20221;-71
2022/03/15 11:01:41;;;;;;;23.33;13.03;;;;;;;11.15;69.33;101926.22;10235948;28;20224;-72
2022/03/15 11:06:47;;;;;;;17.73;11.37;;;;;;;11.47;68.57;101919.72;10236028;28;20208;-70
2022/03/15 11:11:58;;;;;;;19.40;11.43;;;;;;;12.10;66.38;101905.59;10239762;28;20290;-70
2022/03/15 11:17:06;;;;;;;17.50;10.17;;;;;;;13.19;63.21;101901.97;10260179;28;20307;-70
2022/03/15 11:22:10;;;;;;;20.27;12.07;;;;;;;13.33;61.92;101900.31;10259664;28;20236;-72
2022/03/15 11:27:16;;;;;;;20.87;11.93;;;;;;;14.26;61.01;101881.31;10258900;28;20230;-72
2022/03/15 11:32:22;;;;;;;18.70;12.30;;;;;;;14.14;59.53;101861.28;10259887;28;20232;-73
2022/03/15 11:37:26;;;;;;;20.03;11.30;;;;;;;15.28;57.86;101854.00;10259451;28;20248;-72
2022/03/15 11:42:32;;;;;;;19.90;10.97;;;;;;;15.61;55.40;101840.75;10259436;28;20294;-71
2022/03/15 11:47:44;;;;;;;19.00;11.93;;;;;;;15.61;54.78;101835.50;9919264;28;9999721;-71
2022/03/15 11:53:03;;;;;;;19.43;11.70;;;;;;;14.96;56.21;101843.72;10258737;28;20484;-72
2022/03/15 11:58:09;;;;;;;18.27;11.20;;;;;;;13.85;57.71;101843.03;10254353;28;20216;-71
2022/03/15 12:03:18;;;;;;;22.70;12.57;;;;;;;13.07;59.69;101842.84;10241768;28;20217;-71
2022/03/15 12:08:23;;;;;;;23.10;11.97;;;;;;;12.54;61.22;101842.59;10233545;29;20602;-67
2022/03/15 12:13:34;;;;;;;17.90;12.00;;;;;;;12.39;61.48;101834.66;10238033;28;20227;-69
2022/03/15 12:18:45;;;;;;;19.97;12.20;;;;;;;12.85;61.09;101824.50;10238945;29;20614;-66
2022/03/15 12:23:50;;;;;;;18.10;10.93;;;;;;;14.02;58.14;101818.63;10238353;28;20208;-72
2022/03/15 12:29:00;;;;;;;19.87;10.10;;;;;;;13.10;59.16;101826.38;10230377;29;20566;-68
2022/03/15 12:34:08;;;;;;;18.50;10.27;;;;;;;12.64;61.14;101820.94;10231143;28;20672;-66
2022/03/15 12:39:13;;;;;;;19.50;10.23;;;;;;;12.96;60.18;101821.06;10251187;28;20224;-68
2022/03/15 12:44:23;;;;;;;16.57;10.30;;;;;;;13.53;58.99;101802.97;10247797;28;20228;-68
2022/03/15 12:49:28;;;;;;;63.87;43.37;;;;;;;14.27;56.27;101786.44;10240088;28;20597;-73
2022/03/15 12:54:32;;;;;;;14.63;9.93;;;;;;;14.60;56.66;101776.75;10240096;28;20230;-71
2022/03/15 12:59:35;;;;;;;11.20;7.43;;;;;;;13.58;56.23;101782.13;10238084;29;20247;-73
2022/03/15 13:04:42;;;;;;;15.53;8.23;;;;;;;13.04;57.61;101780.31;10240204;28;20308;-72
2022/03/15 13:09:46;;;;;;;14.80;9.80;;;;;;;13.24;57.69;101780.31;10259191;28;20266;-74
2022/03/15 13:14:55;;;;;;;15.53;9.60;;;;;;;13.05;58.55;101776.81;10260998;28;20230;-72
2022/03/15 13:20:00;;;;;;;16.10;10.37;;;;;;;13.08;58.62;101779.41;10258069;28;20294;-75
2022/03/15 13:25:05;;;;;;;20.57;11.67;;;;;;;12.82;59.26;101766.28;10258425;28;20238;-73
2022/03/15 13:30:10;;;;;;;20.20;11.50;;;;;;;12.75;59.76;101772.34;10258359;28;20197;-75
2022/03/15 13:35:23;;;;;;;19.87;11.80;;;;;;;12.36;60.90;101769.56;10258112;28;20220;-74
2022/03/15 13:40:29;;;;;;;17.47;10.53;;;;;;;12.85;60.82;101759.34;10258764;28;20192;-71
2022/03/15 13:45:34;;;;;;;16.03;11.30;;;;;;;13.89;58.02;101732.50;10258988;28;20290;-66
2022/03/15 13:50:40;;;;;;;15.00;10.43;;;;;;;13.88;57.52;101730.78;10257807;28;20279;-67
2022/03/15 13:55:44;;;;;;;13.87;9.80;;;;;;;13.96;57.24;101735.13;10253846;28;20246;-68
2022/03/15 14:00:47;;;;;;;19.07;11.03;;;;;;;13.61;57.79;101737.78;10253744;29;20289;-65
2022/03/15 14:06:01;;;;;;;15.47;10.83;;;;;;;13.40;57.89;101746.47;10253351;28;20210;-64
2022/03/15 14:11:11;;;;;;;23.60;15.33;;;;;;;13.07;58.45;101743.81;10253910;28;20200;-68
2022/03/15 14:16:16;;;;;;;35.17;22.07;;;;;;;12.65;59.10;101738.44;10253546;28;20295;-68
2022/03/15 14:21:23;;;;;;;21.40;11.93;;;;;;;12.53;60.32;101743.59;10236810;29;20311;-67
2022/03/15 14:26:31;;;;;;;20.13;12.60;;;;;;;12.42;61.08;101743.56;10236977;28;20263;-69
2022/03/15 14:31:36;;;;;;;19.17;12.70;;;;;;;12.46;60.85;101742.69;10234023;28;20440;-67
2022/03/15 14:36:42;;;;;;;19.97;12.23;;;;;;;12.28;60.93;101739.16;10234844;28;20197;-69
2022/03/15 14:41:47;;;;;;;20.60;12.50;;;;;;;12.17;60.74;101733.88;10228084;28;20184;-67
2022/03/15 14:46:52;;;;;;;20.70;13.33;;;;;;;12.05;61.41;101731.22;10232819;28;20279;-68
2022/03/15 14:52:02;;;;;;;18.27;10.83;;;;;;;12.19;62.00;101720.88;10228703;28;20266;-68
2022/03/15 14:57:06;;;;;;;18.50;10.93;;;;;;;12.31;60.37;101715.72;10235100;28;20301;-63
2022/03/15 15:02:10;;;;;;;131.80;72.47;;;;;;;12.18;60.62;101709.59;10230937;29;20224;-64
2022/03/15 15:07:15;;;;;;;18.27;11.80;;;;;;;12.03;60.98;101706.06;10231907;28;20213;-65
2022/03/15 15:12:19;;;;;;;18.53;11.20;;;;;;;12.00;60.77;101704.31;10231244;28;20279;-65
2022/03/15 15:17:23;;;;;;;22.30;12.47;;;;;;;12.15;60.79;101693.13;10235580;28;20641;-65
2022/03/15 15:22:28;;;;;;;17.57;10.83;;;;;;;12.29;60.94;101694.03;10232398;28;20271;-67
2022/03/15 15:27:33;;;;;;;18.60;11.73;;;;;;;12.27;60.96;101687.97;10233116;28;20304;-64
2022/03/15 15:32:37;;;;;;;20.70;11.83;;;;;;;12.10;61.51;101684.38;10235012;28;20284;-72
2022/03/15 15:37:44;;;;;;;18.80;11.57;;;;;;;11.97;62.63;101693.00;10239334;28;20224;-72
2022/03/15 15:42:51;;;;;;;20.70;12.40;;;;;;;11.92;63.15;101700.78;10230207;28;20533;-71
2022/03/15 15:47:54;;;;;;;18.27;11.13;;;;;;;11.92;62.17;101698.19;10247838;28;20713;-71
2022/03/15 15:53:02;;;;;;;19.93;12.70;;;;;;;11.83;62.02;101690.31;10254161;28;20224;-74
2022/03/15 15:58:05;;;;;;;23.27;14.23;;;;;;;11.47;63.72;101687.44;10245166;28;20433;-65
2022/03/15 16:03:10;;;;;;;52.77;29.90;;;;;;;11.22;64.74;101691.56;10245523;29;20221;-71
2022/03/15 16:08:15;;;;;;;21.03;13.97;;;;;;;11.22;65.71;101686.38;10252015;28;20684;-71
2022/03/15 16:13:19;;;;;;;23.70;14.17;;;;;;;11.16;65.91;101688.06;10257560;28;20246;-69
2022/03/15 16:18:22;;;;;;;24.97;14.13;;;;;;;11.14;66.20;101684.56;10281523;28;20231;-73
2022/03/15 16:23:27;;;;;;;25.23;15.00;;;;;;;11.08;66.44;101679.31;10275734;28;20306;-69
2022/03/15 16:28:30;;;;;;;26.50;14.03;;;;;;;10.94;68.39;101676.56;10258463;28;20524;-68
2022/03/15 16:33:34;;;;;;;30.20;16.87;;;;;;;10.85;69.47;101675.63;10257162;28;20251;-71
2022/03/15 16:38:38;;;;;;;31.23;15.30;;;;;;;10.69;69.90;101677.19;10257194;28;20279;-71
2022/03/15 16:43:42;;;;;;;24.73;15.17;;;;;;;10.69;70.18;101673.72;10253683;28;20383;-72
2022/03/15 16:48:45;;;;;;;24.07;14.93;;;;;;;10.69;70.87;101674.59;10240165;29;20295;-69
2022/03/15 16:53:50;;;;;;;23.47;14.10;;;;;;;10.64;70.88;101670.22;10252094;28;20232;-71
2022/03/15 16:59:11;;;;;;;30.40;15.97;;;;;;;10.58;71.73;101671.00;10251553;28;20690;-71
2022/03/15 17:09:43;;;;;;;28.03;15.40;;;;;;;10.41;72.29;101668.25;10246156;29;20216;-71
2022/03/15 17:14:49;;;;;;;30.07;14.47;;;;;;;10.37;72.09;101666.44;10275653;28;20286;-72
2022/03/15 17:19:52;;;;;;;24.37;14.53;;;;;;;10.26;73.10;101660.28;10250506;28;20235;-69
2022/03/15 17:25:02;;;;;;;27.37;15.53;;;;;;;10.29;73.47;101656.84;10250964;29;20273;-70
2022/03/15 17:30:10;;;;;;;25.30;15.23;;;;;;;10.22;74.06;101649.81;10249189;28;20247;-72
2022/03/15 17:35:16;;;;;;;25.60;14.83;;;;;;;10.19;75.41;101647.22;10249334;28;20242;-69
2022/03/15 17:40:21;;;;;;;30.00;15.10;;;;;;;10.15;76.22;101642.81;10251654;28;20235;-70
2022/03/15 17:45:25;;;;;;;31.50;17.30;;;;;;;10.05;75.52;101641.81;10256309;28;20223;-69
2022/03/15 17:50:32;;;;;;;32.10;18.37;;;;;;;9.97;76.68;101642.56;10289063;28;20223;-69
2022/03/15 17:55:38;;;;;;;28.13;16.60;;;;;;;9.93;76.25;101638.19;10267149;28;20639;-70
2022/03/15 18:00:45;;;;;;;31.97;16.27;;;;;;;9.82;76.61;101629.41;10248439;28;20220;-72
2022/03/15 18:05:55;;;;;;;29.20;16.53;;;;;;;9.83;76.86;101626.84;10247739;29;20711;-70
2022/03/15 18:11:00;;;;;;;35.23;19.77;;;;;;;9.80;76.13;101612.97;10248123;28;20311;-70
2022/03/15 18:16:07;;;;;;;35.57;20.40;;;;;;;9.71;76.33;101613.72;10247085;28;20243;-72
2022/03/15 18:21:10;;;;;;;40.30;22.27;;;;;;;9.70;75.87;101609.38;10247442;28;20651;-69
2022/03/15 18:26:17;;;;;;;35.47;20.77;;;;;;;9.69;76.48;101609.34;10249084;28;20230;-71
2022/03/15 18:31:21;;;;;;;43.30;23.07;;;;;;;9.59;76.05;101598.00;10247072;28;20249;-69
2022/03/15 18:36:26;;;;;;;43.73;22.93;;;;;;;9.52;76.11;101590.09;10247596;28;20223;-72
2022/03/15 18:41:31;;;;;;;48.50;22.80;;;;;;;9.40;76.62;101584.75;10248001;28;20338;-69
2022/03/15 18:46:35;;;;;;;45.13;23.93;;;;;;;9.24;76.29;101575.88;10249531;28;20230;-69
2022/03/15 18:51:39;;;;;;;44.73;25.27;;;;;;;9.17;76.42;101571.47;10250170;28;20196;-71
2022/03/15 18:56:46;;;;;;;48.30;25.27;;;;;;;9.05;77.12;101566.97;10249653;28;20236;-70
2022/03/15 19:01:50;;;;;;;46.00;24.57;;;;;;;8.99;77.82;101569.47;10249436;28;20192;-72
2022/03/15 19:06:55;;;;;;;54.47;26.47;;;;;;;8.94;77.92;101565.06;10216919;28;20201;-71
2022/03/15 19:12:00;;;;;;;54.27;29.73;;;;;;;8.76;78.44;101572.53;10209651;29;20200;-71
2022/03/15 19:17:04;;;;;;;50.70;28.63;;;;;;;8.55;79.23;101570.47;10209477;29;20224;-71
2022/03/15 19:22:09;;;;;;;51.77;28.27;;;;;;;8.49;80.19;101565.16;10209938;29;20324;-70
2022/03/15 19:27:14;;;;;;;50.53;28.33;;;;;;;8.39;81.03;101571.03;10212529;29;20699;-69
2022/03/15 19:32:20;;;;;;;51.87;28.50;;;;;;;8.18;82.87;101575.75;10216911;29;20755;-71
2022/03/15 19:37:24;;;;;;;59.13;28.43;;;;;;;8.09;83.12;101575.59;10216733;29;20217;-69
2022/03/15 19:42:30;;;;;;;56.60;28.73;;;;;;;8.02;83.69;101573.75;10216331;29;20207;-69
2022/03/15 19:47:39;;;;;;;65.37;31.53;;;;;;;7.88;84.04;101564.84;10216209;29;20228;-71
2022/03/15 19:52:42;;;;;;;60.27;30.43;;;;;;;7.62;86.03;101555.66;10216649;29;20227;-71
2022/03/15 19:57:49;;;;;;;57.67;30.57;;;;;;;7.60;85.91;101541.84;10215622;29;20707;-70
2022/03/15 20:02:54;;;;;;;58.03;29.03;;;;;;;7.52;86.88;101530.50;10241826;29;20227;-72
2022/03/15 20:07:57;;;;;;;58.90;29.87;;;;;;;7.43;87.47;101519.97;10234182;28;20235;-72
2022/03/15 20:13:03;;;;;;;59.50;30.83;;;;;;;7.41;88.62;101524.22;10235783;29;20220;-67
2022/03/15 20:18:07;;;;;;;69.30;37.40;;;;;;;7.26;89.60;101539.38;10233070;29;20268;-71
2022/03/15 20:23:13;;;;;;;58.70;29.37;;;;;;;7.25;90.21;101540.25;10233685;28;20271;-70
2022/03/15 20:28:19;;;;;;;58.00;31.80;;;;;;;7.09;90.43;101540.72;10235253;28;20339;-70
2022/03/15 20:33:23;;;;;;;58.97;32.27;;;;;;;6.88;91.12;101525.63;10245484;28;20299;-70
2022/03/15 20:38:29;;;;;;;57.37;29.83;;;;;;;6.91;92.12;101528.25;10228857;28;20323;-70
2022/03/15 20:48:51;;;;;;;56.70;31.73;;;;;;;6.88;92.89;101502.41;10230448;28;20233;-72
2022/03/15 20:53:55;;;;;;;271.20;166.17;;;;;;;6.85;94.96;101503.19;10256896;28;20355;-69
2022/03/15 20:59:01;;;;;;;61.03;32.67;;;;;;;6.87;94.08;101498.06;10233630;29;20252;-71
2022/03/15 21:04:08;;;;;;;65.33;34.20;;;;;;;6.79;94.94;101497.03;9894894;28;9999750;-70
2022/03/15 21:09:13;;;;;;;60.07;32.10;;;;;;;6.66;94.98;101495.84;10228334;28;20235;-70
2022/03/15 21:14:27;;;;;;;60.70;32.13;;;;;;;6.52;95.60;101512.69;10226294;29;20228;-69
2022/03/15 21:19:45;;;;;;;66.33;36.10;;;;;;;6.50;96.20;101504.06;10251902;28;20255;-69
2022/03/15 21:24:49;;;;;;;63.80;33.03;;;;;;;6.47;96.81;101505.69;10252440;28;20227;-70
2022/03/15 21:29:54;;;;;;;63.80;33.60;;;;;;;6.42;95.79;101503.00;10252140;28;20220;-69
2022/03/15 21:34:57;;;;;;;65.80;34.97;;;;;;;6.53;95.30;101501.56;10251803;28;20232;-68
2022/03/15 21:40:01;;;;;;;70.37;34.60;;;;;;;6.47;95.90;101491.09;10251643;28;20314;-69
2022/03/15 21:45:11;;;;;;;66.03;34.70;;;;;;;6.44;95.91;101493.59;10251165;28;20224;-70
2022/03/15 21:50:17;;;;;;;65.83;36.90;;;;;;;6.42;96.52;101503.00;10251209;28;20612;-69
2022/03/15 21:55:20;;;;;;;69.77;36.03;;;;;;;6.40;96.12;101490.91;10251231;28;20235;-71
2022/03/15 22:00:25;;;;;;;71.00;36.97;;;;;;;6.38;96.43;101496.03;10251213;28;20290;-72
2022/03/15 22:05:28;;;;;;;68.63;36.77;;;;;;;6.42;96.67;101484.94;10251001;28;20250;-71
2022/03/15 22:10:34;;;;;;;64.77;35.60;;;;;;;6.41;96.00;101490.06;10250942;28;20331;-70
2022/03/15 22:15:39;;;;;;;63.00;35.03;;;;;;;6.27;96.41;101482.00;10250531;28;20242;-70
2022/03/15 22:20:43;;;;;;;66.43;36.40;;;;;;;6.25;97.67;101483.66;10250238;28;20243;-70
2022/03/15 22:25:46;;;;;;;71.13;37.17;;;;;;;6.30;96.55;101460.59;10250363;28;20318;-69
2022/03/15 23:18:30;;;;;;;71.07;36.07;;;;;;;6.06;98.70;101450.53;10254971;28;20247;-72
2022/03/15 23:23:34;;;;;;;69.47;34.60;;;;;;;6.00;98.66;101440.06;10249534;29;20683;-71
2022/03/15 23:28:37;;;;;;;64.80;33.87;;;;;;;6.07;99.42;101448.81;10255038;28;20758;-72
2022/03/15 23:33:42;;;;;;;63.17;33.60;;;;;;;6.04;99.83;101441.03;10254539;28;20589;-63
2022/03/15 23:38:45;;;;;;;62.17;35.03;;;;;;;6.00;99.93;101440.06;10253736;28;20231;-72
2022/03/15 23:43:49;;;;;;;61.37;32.33;;;;;;;6.01;100.00;101426.34;10256612;28;20239;-73
2022/03/15 23:48:53;;;;;;;60.03;32.37;;;;;;;5.97;99.96;101414.19;10257968;28;20228;-72
2022/03/15 23:53:57;;;;;;;57.40;30.87;;;;;;;5.83;99.50;101411.28;10259121;28;20303;-71
2022/03/15 23:59:00;;;;;;;61.47;32.83;;;;;;;5.87;100.00;101395.94;10259095;28;20282;-71
